Time;durP1;ratioP1;P1;durP2;ratioP2;P2;SDS_P1;SDS_P2;PMS_P1;PMS_P2;Temp;Humidity;BMP_temperature;BMP_pressure;BME280_temperature;BME280_humidity;BME280_pressure;Samples;Min_cycle;Max_cycle;Signal;HPM_P1;HPM_P2
2021/08/03 00:00:14;;;;;;;1.42;1.00;;;15.30;77.10;;;;;;4986233;28;20081;-64
2021/08/03 00:02:44;;;;;;;2.35;1.20;;;15.30;77.00;;;;;;4985984;28;20034;-64
2021/08/03 00:05:13;;;;;;;1.05;1.00;;;15.30;78.40;;;;;;4986402;28;20441;-64
2021/08/03 00:07:39;;;;;;;2.83;1.02;;;15.30;77.50;;;;;;4986022;28;20101;-64
2021/08/03 00:10:06;;;;;;;3.38;1.10;;;15.30;77.70;;;;;;4985376;28;20114;-64
2021/08/03 00:12:31;;;;;;;2.08;0.98;;;15.30;77.60;;;;;;4980594;28;20550;-64
2021/08/03 00:14:58;;;;;;;2.42;0.90;;;15.30;77.30;;;;;;4986571;28;20026;-64
2021/08/03 00:17:26;;;;;;;2.05;0.82;;;15.30;77.20;;;;;;4984265;28;20126;-64
2021/08/03 00:19:53;;;;;;;0.75;0.75;;;15.20;77.50;;;;;;4986216;28;20053;-64
2021/08/03 00:22:22;;;;;;;1.20;1.10;;;15.20;77.50;;;;;;4985630;28;20034;-64
2021/08/03 00:24:49;;;;;;;1.10;1.10;;;15.20;77.50;;;;;;4984274;28;20041;-64
2021/08/03 00:27:15;;;;;;;1.20;1.10;;;15.10;77.20;;;;;;4985919;28;20081;-64
2021/08/03 00:29:40;;;;;;;0.82;0.82;;;15.10;77.30;;;;;;4988093;28;20058;-64
2021/08/03 00:32:07;;;;;;;1.15;0.90;;;15.00;77.40;;;;;;4987480;28;20301;-64
2021/08/03 00:34:36;;;;;;;1.55;0.93;;;15.00;77.90;;;;;;4989858;28;20061;-64
2021/08/03 00:37:02;;;;;;;1.75;1.00;;;15.00;78.50;;;;;;4989913;28;20134;-64
2021/08/03 00:39:28;;;;;;;1.20;1.10;;;14.90;77.90;;;;;;4990483;28;20403;-64
2021/08/03 00:41:55;;;;;;;2.55;1.20;;;14.90;77.90;;;;;;4988167;28;20038;-64
2021/08/03 00:44:40;;;;;;;3.10;0.90;;;14.90;78.00;;;;;;4989481;28;20042;-64
2021/08/03 00:47:06;;;;;;;0.88;0.88;;;14.80;78.70;;;;;;4997782;28;20405;-64
2021/08/03 00:49:31;;;;;;;5.80;1.30;;;14.80;78.20;;;;;;4989847;28;20046;-64
2021/08/03 00:51:57;;;;;;;1.20;1.10;;;14.80;78.40;;;;;;5001986;28;20613;-64
2021/08/03 00:54:23;;;;;;;1.42;1.33;;;14.80;78.60;;;;;;4987689;28;20056;-63
2021/08/03 00:56:49;;;;;;;3.65;1.08;;;14.70;78.70;;;;;;4989807;28;20034;-64
2021/08/03 00:59:14;;;;;;;2.60;1.00;;;14.70;78.70;;;;;;4987621;28;20498;-64
2021/08/03 01:01:40;;;;;;;3.72;0.80;;;14.60;78.80;;;;;;4981447;28;20038;-64
2021/08/03 01:04:09;;;;;;;3.97;1.00;;;14.60;78.90;;;;;;5005320;28;20034;-64
2021/08/03 01:06:44;;;;;;;3.35;0.90;;;14.60;78.90;;;;;;4988432;28;20514;-64
2021/08/03 01:09:21;;;;;;;3.55;1.00;;;14.60;79.20;;;;;;4988880;28;20050;-64
2021/08/03 01:11:54;;;;;;;2.55;0.98;;;14.60;78.70;;;;;;4982954;28;20153;-64
2021/08/03 01:14:33;;;;;;;1.75;1.20;;;14.60;78.70;;;;;;4989679;28;20042;-64
2021/08/03 01:17:28;;;;;;;0.80;0.80;;;14.60;78.60;;;;;;4988067;28;20033;-64
2021/08/03 01:20:06;;;;;;;1.25;0.77;;;14.60;78.60;;;;;;4989160;28;20604;-64
2021/08/03 01:22:41;;;;;;;2.78;0.95;;;14.60;78.60;;;;;;4996520;28;20497;-64
2021/08/03 01:25:20;;;;;;;;;;;14.60;78.60;;;;;;4989849;28;20387;-64
2021/08/03 01:28:11;;;;;;;0.80;0.80;;;14.60;78.50;;;;;;4989330;28;19925;-64
2021/08/03 01:30:41;;;;;;;2.90;1.00;;;14.60;78.20;;;;;;4986041;28;20085;-64
2021/08/03 01:33:08;;;;;;;5.38;1.30;;;14.50;77.50;;;;;;4996770;28;20042;-64
2021/08/03 01:35:34;;;;;;;2.55;1.00;;;14.50;77.50;;;;;;4985666;28;20406;-64
2021/08/03 01:38:03;;;;;;;1.15;1.05;;;14.50;77.50;;;;;;4989821;28;20038;-64
2021/08/03 01:40:29;;;;;;;4.07;1.15;;;14.40;77.70;;;;;;4981541;28;20058;-64
2021/08/03 01:42:55;;;;;;;1.52;0.95;;;14.40;78.00;;;;;;4977294;28;20039;-64
2021/08/03 01:45:23;;;;;;;7.10;1.20;;;14.30;78.10;;;;;;4979678;28;20066;-64
2021/08/03 01:47:49;;;;;;;1.50;1.40;;;14.30;78.20;;;;;;4989093;28;20037;-64
2021/08/03 01:50:16;;;;;;;1.30;1.20;;;14.30;78.40;;;;;;4976851;28;20027;-64
2021/08/03 01:52:43;;;;;;;1.58;1.08;;;14.20;78.60;;;;;;4971251;28;20138;-64
2021/08/03 01:55:09;;;;;;;1.23;1.13;;;14.20;78.70;;;;;;4985550;28;20114;-64
2021/08/03 01:57:44;;;;;;;1.63;1.30;;;14.20;78.70;;;;;;4967372;28;20061;-64
2021/08/03 02:00:10;;;;;;;3.35;1.52;;;14.20;79.30;;;;;;4973401;28;20951;-64
2021/08/03 02:02:36;;;;;;;3.25;1.50;;;14.20;78.70;;;;;;4976595;28;20031;-64
2021/08/03 02:05:03;;;;;;;3.10;1.55;;;14.20;78.60;;;;;;4988555;28;21007;-64
2021/08/03 02:07:30;;;;;;;3.25;1.50;;;14.20;78.60;;;;;;4983748;28;20529;-64
2021/08/03 02:09:57;;;;;;;2.95;1.23;;;14.10;78.60;;;;;;4980611;28;20051;-64
2021/08/03 02:12:24;;;;;;;2.08;1.30;;;14.10;78.60;;;;;;4973191;28;20042;-64
2021/08/03 02:14:50;;;;;;;2.33;1.70;;;14.10;78.70;;;;;;4976953;28;20035;-64
2021/08/03 02:17:21;;;;;;;2.95;1.35;;;14.00;78.80;;;;;;4979892;28;20101;-64
2021/08/03 02:19:47;;;;;;;2.45;1.10;;;14.00;78.90;;;;;;4973080;28;20067;-63
2021/08/03 02:22:13;;;;;;;2.75;1.30;;;14.00;78.90;;;;;;4976735;28;20715;-64
2021/08/03 02:24:40;;;;;;;2.60;1.52;;;14.00;79.10;;;;;;4979603;28;20030;-64
2021/08/03 02:27:06;;;;;;;3.38;1.30;;;13.90;79.00;;;;;;4979257;28;20049;-64
2021/08/03 02:29:33;;;;;;;1.73;1.55;;;13.90;79.30;;;;;;4978914;28;20035;-64
2021/08/03 02:32:04;;;;;;;1.67;1.40;;;13.90;79.40;;;;;;4969423;28;20066;-64
2021/08/03 02:34:38;;;;;;;1.30;1.20;;;13.90;80.10;;;;;;4976355;28;20038;-64
2021/08/03 02:37:09;;;;;;;1.60;1.25;;;13.90;79.50;;;;;;4975632;28;20541;-64
2021/08/03 02:39:36;;;;;;;2.55;1.10;;;13.90;79.40;;;;;;4979304;28;20038;-64
2021/08/03 02:42:04;;;;;;;1.27;1.17;;;13.90;79.60;;;;;;4974181;28;20101;-63
2021/08/03 02:44:31;;;;;;;2.58;1.00;;;13.90;79.30;;;;;;4973147;28;20031;-64
2021/08/03 02:46:58;;;;;;;2.08;0.95;;;13.90;79.20;;;;;;4973572;28;20597;-64
2021/08/03 02:49:47;;;;;;;2.78;1.13;;;13.90;79.10;;;;;;4973932;28;20646;-64
2021/08/03 02:52:14;;;;;;;1.30;0.80;;;13.90;78.90;;;;;;4974668;28;20053;-64
2021/08/03 02:54:43;;;;;;;1.60;1.13;;;13.80;78.80;;;;;;4983142;28;20593;-64
2021/08/03 02:57:11;;;;;;;2.47;1.25;;;13.80;79.10;;;;;;4977444;28;20042;-64
2021/08/03 02:59:42;;;;;;;17.38;1.63;;;13.80;79.30;;;;;;4976579;28;20097;-64
2021/08/03 03:02:11;;;;;;;12.73;1.58;;;13.80;79.70;;;;;;4976025;28;20149;-64
2021/08/03 03:04:41;;;;;;;10.23;1.65;;;13.70;79.60;;;;;;4976863;28;20042;-63
2021/08/03 03:07:17;;;;;;;9.88;1.48;;;13.70;79.70;;;;;;4975671;28;20089;-64
2021/08/03 03:09:44;;;;;;;1.60;1.50;;;13.70;80.10;;;;;;4984515;28;20120;-64
2021/08/03 03:12:11;;;;;;;4.35;1.40;;;13.70;79.80;;;;;;4977256;28;20034;-63
2021/08/03 03:14:42;;;;;;;6.90;1.15;;;13.70;79.80;;;;;;4982128;28;20038;-64
2021/08/03 03:17:10;;;;;;;5.90;1.27;;;13.70;79.80;;;;;;4972556;28;20035;-64
2021/08/03 03:19:37;;;;;;;1.42;1.33;;;13.70;79.80;;;;;;4972288;28;20054;-64
2021/08/03 03:22:05;;;;;;;3.63;1.13;;;13.70;80.80;;;;;;4982626;28;20560;-63
2021/08/03 03:24:36;;;;;;;1.58;1.20;;;13.70;79.70;;;;;;4978384;28;20557;-64
2021/08/03 03:27:03;;;;;;;4.07;1.10;;;13.70;79.50;;;;;;4986819;28;20124;-63
2021/08/03 03:29:30;;;;;;;1.27;1.00;;;13.70;79.40;;;;;;4981089;28;20517;-65
2021/08/03 03:31:56;;;;;;;4.30;1.15;;;13.70;79.60;;;;;;4984967;28;20437;-63
2021/08/03 03:34:24;;;;;;;6.22;1.42;;;13.70;79.50;;;;;;4976551;28;20030;-63
2021/08/03 03:36:51;;;;;;;2.90;1.50;;;13.70;79.40;;;;;;4985689;28;20043;-64
2021/08/03 03:39:18;;;;;;;14.25;1.10;;;13.70;79.50;;;;;;4971438;28;20034;-64
2021/08/03 03:41:48;;;;;;;18.98;1.42;;;13.70;79.50;;;;;;4968298;28;20588;-64
2021/08/03 03:44:14;;;;;;;3.92;1.30;;;13.70;79.60;;;;;;4973132;28;20042;-64
2021/08/03 03:46:48;;;;;;;12.43;4.57;;;13.70;79.40;;;;;;4971343;28;20073;-64
2021/08/03 03:49:18;;;;;;;20.17;6.72;;;13.70;79.30;;;;;;4966374;28;20053;-64
2021/08/03 03:51:44;;;;;;;27.25;9.82;;;13.70;79.20;;;;;;4979495;28;20674;-64
2021/08/03 03:54:22;;;;;;;19.10;8.77;;;13.70;78.90;;;;;;4970505;28;20074;-64
2021/08/03 03:56:50;;;;;;;16.95;8.77;;;13.70;78.90;;;;;;4979962;28;20037;-64
2021/08/03 03:59:20;;;;;;;12.45;6.15;;;13.70;78.70;;;;;;4980761;28;20038;-64
2021/08/03 04:01:50;;;;;;;6.40;4.00;;;13.60;78.90;;;;;;4974382;28;20565;-64
2021/08/03 04:04:17;;;;;;;4.70;2.17;;;13.60;79.20;;;;;;4969768;28;20035;-64
2021/08/03 04:06:43;;;;;;;5.65;1.58;;;13.60;79.40;;;;;;4981191;28;20042;-64
2021/08/03 04:09:23;;;;;;;3.78;1.58;;;13.60;79.40;;;;;;4985044;28;20038;-63
2021/08/03 04:11:50;;;;;;;2.55;1.63;;;13.60;80.20;;;;;;4981187;28;20137;-64
2021/08/03 04:14:22;;;;;;;1.45;1.35;;;13.60;79.90;;;;;;4980242;28;20109;-64
2021/08/03 04:16:50;;;;;;;1.98;1.60;;;13.60;80.20;;;;;;4975484;28;20113;-64
2021/08/03 04:19:15;;;;;;;1.75;1.25;;;13.60;80.10;;;;;;4967456;28;20030;-64
2021/08/03 04:21:42;;;;;;;4.00;1.30;;;13.60;80.20;;;;;;4976922;28;20049;-64
2021/08/03 04:24:09;;;;;;;3.00;1.30;;;13.60;80.30;;;;;;4978932;28;20038;-63
2021/08/03 04:26:35;;;;;;;1.20;1.10;;;13.60;80.40;;;;;;4978553;28;20118;-63
2021/08/03 04:29:03;;;;;;;1.75;0.90;;;13.70;81.40;;;;;;4975612;28;20513;-64
2021/08/03 04:31:28;;;;;;;1.40;1.30;;;13.70;80.50;;;;;;4977359;28;20065;-64
2021/08/03 04:33:54;;;;;;;2.05;1.20;;;13.70;80.40;;;;;;4976627;28;20069;-64
2021/08/03 04:36:20;;;;;;;1.10;1.10;;;13.70;80.30;;;;;;4974640;28;20034;-64
2021/08/03 04:38:45;;;;;;;1.50;1.40;;;13.70;80.30;;;;;;4977001;28;20252;-64
2021/08/03 04:41:11;;;;;;;2.20;2.05;;;13.80;80.50;;;;;;4969279;28;20031;-64
2021/08/03 04:43:36;;;;;;;2.38;2.28;;;13.80;80.60;;;;;;4975418;28;20038;-63
2021/08/03 04:46:02;;;;;;;4.35;2.85;;;13.80;80.60;;;;;;4978441;28;20069;-64
2021/08/03 04:48:28;;;;;;;2.67;2.10;;;13.80;80.60;;;;;;4984721;28;20042;-64
2021/08/03 04:50:53;;;;;;;1.70;1.60;;;13.90;80.50;;;;;;4974212;28;20130;-64
2021/08/03 04:53:19;;;;;;;1.73;1.63;;;13.90;80.40;;;;;;4975530;28;20030;-64
2021/08/03 04:55:44;;;;;;;1.98;1.88;;;13.90;80.40;;;;;;4973609;28;20122;-63
2021/08/03 04:58:10;;;;;;;2.35;1.30;;;13.90;80.60;;;;;;4982166;28;20034;-64
2021/08/03 05:00:36;;;;;;;1.73;1.30;;;14.00;80.60;;;;;;4976576;28;20101;-64
2021/08/03 05:03:01;;;;;;;2.33;1.38;;;14.00;80.70;;;;;;4971539;28;20073;-63
2021/08/03 05:05:27;;;;;;;3.30;1.50;;;14.00;80.70;;;;;;4977410;28;20039;-64
2021/08/03 05:07:58;;;;;;;1.70;1.60;;;14.00;80.60;;;;;;4974352;28;20038;-64
2021/08/03 05:10:24;;;;;;;3.03;1.50;;;14.00;80.60;;;;;;4968632;28;20039;-65
2021/08/03 05:12:51;;;;;;;2.00;1.58;;;14.00;80.80;;;;;;4979844;28;20031;-64
2021/08/03 05:15:16;;;;;;;1.65;1.55;;;14.00;81.10;;;;;;4983137;28;20023;-64
2021/08/03 05:17:42;;;;;;;3.92;1.70;;;14.00;81.20;;;;;;4978661;28;20085;-64
2021/08/03 05:20:08;;;;;;;4.15;1.80;;;14.00;81.20;;;;;;4975779;28;20042;-63
2021/08/03 05:22:34;;;;;;;2.03;1.80;;;14.10;81.40;;;;;;4980876;28;20441;-64
2021/08/03 05:25:00;;;;;;;1.80;1.70;;;14.10;82.50;;;;;;4987947;28;20097;-64
2021/08/03 05:27:26;;;;;;;2.38;1.80;;;14.10;81.90;;;;;;4981085;28;20034;-64
2021/08/03 05:29:51;;;;;;;12.65;9.90;;;14.10;82.00;;;;;;4973759;28;20527;-63
2021/08/03 05:32:17;;;;;;;15.70;12.00;;;14.10;82.20;;;;;;4969842;28;20046;-64
2021/08/03 05:34:43;;;;;;;5.20;3.33;;;14.20;82.40;;;;;;4970236;28;20126;-64
2021/08/03 05:37:08;;;;;;;4.10;2.63;;;14.30;82.60;;;;;;4973860;28;20569;-64
2021/08/03 05:39:34;;;;;;;2.80;1.85;;;14.30;82.60;;;;;;4979152;28;20034;-64
2021/08/03 05:42:01;;;;;;;2.00;1.73;;;14.40;82.60;;;;;;4987002;28;20035;-62
2021/08/03 05:44:27;;;;;;;2.13;1.98;;;14.40;82.50;;;;;;4989464;28;20034;-63
2021/08/03 05:46:53;;;;;;;2.78;2.05;;;14.50;82.60;;;;;;4973995;28;20050;-62
2021/08/03 05:49:19;;;;;;;2.58;1.90;;;14.50;82.50;;;;;;4980512;28;20043;-64
2021/08/03 05:51:45;;;;;;;2.65;2.22;;;14.60;82.60;;;;;;4971012;28;20755;-63
2021/08/03 05:54:10;;;;;;;2.40;1.80;;;14.60;82.60;;;;;;4993501;28;20038;-64
2021/08/03 05:56:38;;;;;;;2.40;2.20;;;14.60;82.80;;;;;;4971828;28;20050;-64
2021/08/03 05:59:03;;;;;;;4.35;2.38;;;14.70;83.10;;;;;;4971784;28;20038;-64
2021/08/03 06:01:29;;;;;;;6.65;2.10;;;14.70;83.00;;;;;;4961342;28;20050;-64
2021/08/03 06:03:55;;;;;;;3.05;1.77;;;14.80;83.00;;;;;;4950837;28;20043;-64
2021/08/03 06:06:21;;;;;;;1.98;1.70;;;14.90;82.90;;;;;;4952491;28;20039;-64
2021/08/03 06:08:47;;;;;;;2.67;1.90;;;15.00;82.90;;;;;;4966304;28;20117;-64
2021/08/03 06:11:25;;;;;;;2.05;1.65;;;15.10;83.10;;;;;;4951378;28;20047;-63
2021/08/03 06:13:53;;;;;;;5.85;1.70;;;15.10;83.30;;;;;;4957011;28;20181;-65
2021/08/03 06:16:20;;;;;;;5.43;1.95;;;15.20;82.70;;;;;;4953583;28;20051;-65
2021/08/03 06:18:47;;;;;;;2.15;1.95;;;15.30;82.70;;;;;;4952685;28;20050;-64
2021/08/03 06:21:14;;;;;;;2.78;1.80;;;15.40;82.90;;;;;;4955695;28;20035;-64
2021/08/03 06:23:43;;;;;;;3.55;2.10;;;15.40;83.10;;;;;;4958774;28;20045;-64
2021/08/03 06:26:10;;;;;;;1.92;1.73;;;15.50;83.30;;;;;;4959021;28;20405;-64
2021/08/03 06:28:36;;;;;;;4.22;1.77;;;15.60;83.20;;;;;;4955282;28;20039;-65
2021/08/03 06:31:03;;;;;;;2.63;1.80;;;15.70;83.30;;;;;;4952911;28;20050;-64
2021/08/03 06:33:29;;;;;;;7.20;2.13;;;15.70;83.30;;;;;;4954832;28;20115;-65
2021/08/03 06:35:55;;;;;;;6.75;2.08;;;15.80;83.30;;;;;;4956888;28;20039;-64
2021/08/03 06:38:21;;;;;;;6.85;2.17;;;15.90;83.20;;;;;;4955277;28;20289;-65
2021/08/03 06:40:59;;;;;;;7.00;2.10;;;16.00;83.10;;;;;;4961302;28;20057;-64
2021/08/03 06:43:27;;;;;;;10.57;2.33;;;16.00;83.40;;;;;;4966058;28;20030;-65
2021/08/03 06:46:06;;;;;;;11.02;2.60;;;16.10;83.00;;;;;;4951440;28;20039;-65
2021/08/03 06:48:39;;;;;;;9.50;2.28;;;16.20;83.60;;;;;;4952849;28;20121;-64
2021/08/03 06:51:08;;;;;;;8.95;2.28;;;16.20;82.70;;;;;;4969351;28;20034;-65
2021/08/03 06:53:36;;;;;;;8.07;2.80;;;16.30;82.70;;;;;;4954325;28;20530;-63
2021/08/03 06:56:03;;;;;;;3.92;1.92;;;16.30;82.90;;;;;;4978517;28;20638;-64
2021/08/03 06:58:39;;;;;;;8.43;2.35;;;16.40;82.70;;;;;;4954525;28;20130;-64
2021/08/03 07:01:07;;;;;;;5.97;1.90;;;16.50;83.20;;;;;;4953300;28;20057;-65
2021/08/03 07:03:38;;;;;;;5.25;2.22;;;16.60;83.20;;;;;;4951746;28;20027;-64
2021/08/03 07:06:07;;;;;;;5.45;2.22;;;16.60;83.40;;;;;;4957187;28;20993;-65
2021/08/03 07:08:34;;;;;;;2.13;1.92;;;16.70;83.00;;;;;;4954488;28;20043;-64
2021/08/03 07:11:00;;;;;;;4.18;2.05;;;16.80;82.70;;;;;;4965642;28;20055;-65
2021/08/03 07:13:26;;;;;;;4.35;1.90;;;16.90;82.60;;;;;;4979321;28;20117;-65
2021/08/03 07:15:52;;;;;;;7.25;2.30;;;16.90;82.60;;;;;;4974890;28;20049;-64
2021/08/03 07:18:22;;;;;;;5.82;2.30;;;17.00;82.60;;;;;;4979262;28;20042;-65
2021/08/03 07:20:49;;;;;;;4.93;2.40;;;17.10;82.60;;;;;;4981696;28;20038;-65
2021/08/03 07:23:19;;;;;;;10.02;2.30;;;17.10;82.60;;;;;;4976966;28;20077;-65
2021/08/03 07:25:46;;;;;;;9.48;2.53;;;17.20;82.70;;;;;;4975277;28;20089;-65
2021/08/03 07:28:12;;;;;;;6.55;2.35;;;17.30;82.60;;;;;;4980044;28;20466;-65
2021/08/03 07:30:39;;;;;;;8.73;2.38;;;17.30;82.60;;;;;;4974896;28;20038;-65
2021/08/03 07:33:05;;;;;;;4.57;2.47;;;17.40;82.60;;;;;;4978504;28;20066;-65
2021/08/03 07:35:30;;;;;;;7.22;2.55;;;17.40;82.40;;;;;;4980963;28;20121;-65
2021/08/03 07:37:56;;;;;;;2.65;2.40;;;17.50;82.60;;;;;;4980689;28;20037;-65
2021/08/03 07:40:21;;;;;;;5.95;2.90;;;17.60;82.20;;;;;;4977683;28;20550;-65
2021/08/03 07:42:47;;;;;;;4.82;2.72;;;17.60;82.20;;;;;;4990038;28;20574;-65
2021/08/03 07:45:13;;;;;;;6.53;2.70;;;17.70;83.10;;;;;;4993082;28;20027;-65
2021/08/03 07:47:38;;;;;;;2.80;2.13;;;17.70;82.00;;;;;;4978244;28;20433;-65
2021/08/03 07:50:04;;;;;;;3.38;2.28;;;17.80;82.50;;;;;;4976668;28;20533;-65
2021/08/03 07:52:31;;;;;;;3.45;2.25;;;17.90;82.60;;;;;;4979082;28;20045;-65
2021/08/03 07:54:57;;;;;;;9.77;2.50;;;18.00;82.40;;;;;;4980459;28;20037;-65
2021/08/03 07:57:23;;;;;;;5.38;2.78;;;18.00;82.20;;;;;;4976205;28;20677;-64
2021/08/03 07:59:49;;;;;;;2.72;2.40;;;18.10;82.00;;;;;;4970411;28;20096;-65
2021/08/03 08:02:14;;;;;;;3.72;2.38;;;18.20;82.10;;;;;;4985591;28;20297;-65
2021/08/03 08:04:40;;;;;;;3.25;2.55;;;18.30;82.00;;;;;;4979856;28;20100;-65
2021/08/03 08:07:05;;;;;;;2.85;2.22;;;18.40;81.90;;;;;;4983709;28;20039;-65
2021/08/03 08:09:32;;;;;;;2.05;1.95;;;18.50;81.80;;;;;;4983588;28;20042;-66
2021/08/03 08:11:58;;;;;;;3.13;2.70;;;18.60;81.40;;;;;;4973966;28;20092;-65
2021/08/03 08:14:24;;;;;;;2.53;2.33;;;18.60;81.20;;;;;;4979262;28;20038;-65
2021/08/03 08:16:49;;;;;;;3.17;2.22;;;18.70;81.00;;;;;;4981638;28;20125;-64
2021/08/03 08:19:15;;;;;;;2.40;2.20;;;18.80;80.60;;;;;;4985239;28;20121;-65
2021/08/03 08:21:41;;;;;;;2.95;2.38;;;18.90;80.60;;;;;;4983045;28;20038;-65
2021/08/03 08:24:06;;;;;;;2.78;2.50;;;18.90;80.60;;;;;;4984196;28;20042;-65
2021/08/03 08:26:32;;;;;;;3.25;2.40;;;19.00;80.50;;;;;;4982140;28;20113;-65
2021/08/03 08:28:58;;;;;;;2.60;2.40;;;19.00;80.30;;;;;;4977723;28;20033;-65
2021/08/03 08:31:24;;;;;;;3.33;2.47;;;19.10;80.30;;;;;;4999888;28;20046;-65
2021/08/03 08:33:49;;;;;;;2.47;2.28;;;19.10;80.20;;;;;;4984982;28;20039;-65
2021/08/03 08:36:15;;;;;;;3.13;2.50;;;19.20;79.80;;;;;;4985402;28;20581;-65
2021/08/03 08:38:41;;;;;;;3.63;2.38;;;19.20;80.00;;;;;;4981855;28;20041;-65
2021/08/03 08:41:14;;;;;;;2.90;2.60;;;19.20;80.30;;;;;;4981405;28;20490;-65
2021/08/03 08:43:41;;;;;;;4.70;2.10;;;19.30;80.30;;;;;;4992408;28;20042;-65
2021/08/03 08:46:08;;;;;;;3.42;1.98;;;19.30;80.00;;;;;;4999226;28;20085;-65
2021/08/03 08:48:37;;;;;;;2.80;2.22;;;19.40;79.60;;;;;;4984423;28;20050;-64
2021/08/03 08:51:04;;;;;;;2.33;2.10;;;19.40;79.10;;;;;;4988485;28;20117;-65
2021/08/03 08:53:33;;;;;;;2.53;2.22;;;19.50;79.10;;;;;;4984012;28;20381;-65
2021/08/03 08:55:59;;;;;;;3.00;2.13;;;19.60;78.70;;;;;;4981127;28;20049;-64
2021/08/03 08:58:25;;;;;;;2.28;2.08;;;19.70;78.90;;;;;;4997379;28;20092;-64
2021/08/03 09:00:51;;;;;;;2.40;1.80;;;19.70;79.10;;;;;;4987115;28;20027;-65
2021/08/03 09:03:16;;;;;;;1.67;1.55;;;19.80;78.60;;;;;;5002564;28;20076;-65
2021/08/03 09:05:42;;;;;;;2.95;1.42;;;19.90;79.00;;;;;;4988044;28;20106;-65
2021/08/03 09:08:10;;;;;;;1.17;1.10;;;20.00;77.30;;;;;;4987200;28;20038;-65
2021/08/03 09:10:43;;;;;;;1.23;1.10;;;20.10;77.00;;;;;;4981453;28;20042;-65
2021/08/03 09:13:12;;;;;;;1.65;1.50;;;20.20;76.50;;;;;;4985754;28;20054;-65
2021/08/03 09:15:46;;;;;;;1.35;1.25;;;20.20;74.40;;;;;;4987080;28;20077;-65
2021/08/03 09:18:28;;;;;;;2.50;1.50;;;20.30;74.90;;;;;;4989364;28;20146;-65
2021/08/03 09:20:54;;;;;;;1.48;1.38;;;20.40;73.70;;;;;;4987097;28;20035;-65
2021/08/03 09:23:20;;;;;;;1.95;1.40;;;20.50;74.20;;;;;;4987406;28;20080;-65
2021/08/03 09:25:58;;;;;;;3.00;1.38;;;20.50;74.00;;;;;;4986431;28;20402;-65
2021/08/03 09:28:24;;;;;;;2.45;1.50;;;20.60;72.70;;;;;;4985355;28;20042;-64
2021/08/03 09:30:51;;;;;;;1.85;1.60;;;20.60;73.20;;;;;;4983755;28;20041;-65
2021/08/03 09:33:25;;;;;;;2.75;1.80;;;20.70;72.90;;;;;;4988376;28;20073;-65
2021/08/03 09:35:51;;;;;;;4.07;1.58;;;20.80;72.40;;;;;;4989255;28;20382;-65
2021/08/03 09:38:19;;;;;;;2.28;1.63;;;20.80;73.10;;;;;;4996381;28;20126;-65
2021/08/03 09:40:46;;;;;;;1.92;1.65;;;20.90;73.20;;;;;;4986460;28;20117;-65
2021/08/03 09:43:15;;;;;;;2.40;1.70;;;20.90;73.10;;;;;;4988959;28;20118;-65
2021/08/03 09:45:43;;;;;;;2.90;1.60;;;21.00;72.90;;;;;;4977157;28;20026;-64
2021/08/03 09:48:16;;;;;;;2.72;1.63;;;21.10;72.10;;;;;;4973252;28;20034;-65
2021/08/03 09:50:51;;;;;;;1.80;1.70;;;21.20;72.40;;;;;;4960526;28;20128;-65
2021/08/03 09:53:39;;;;;;;2.75;2.08;;;21.20;72.10;;;;;;4968293;28;20501;-64
2021/08/03 09:56:11;;;;;;;2.55;1.70;;;21.30;70.70;;;;;;4986074;28;20037;-65
2021/08/03 09:59:12;;;;;;;3.00;1.85;;;21.30;71.80;;;;;;4971271;28;20034;-64
2021/08/03 10:01:40;;;;;;;2.53;1.88;;;21.40;70.80;;;;;;4989016;28;20521;-65
2021/08/03 10:04:08;;;;;;;1.58;1.48;;;21.50;71.30;;;;;;4978415;28;20077;-65
2021/08/03 10:06:35;;;;;;;2.72;1.67;;;21.50;71.60;;;;;;4988814;28;20027;-65
2021/08/03 10:09:03;;;;;;;2.13;1.75;;;21.60;71.40;;;;;;4986383;28;20518;-65
2021/08/03 10:11:29;;;;;;;1.90;1.65;;;21.70;70.90;;;;;;4980808;28;20120;-66
2021/08/03 10:13:56;;;;;;;1.73;1.63;;;21.80;71.70;;;;;;4981925;28;20081;-65
2021/08/03 10:16:24;;;;;;;2.50;1.65;;;21.90;70.70;;;;;;4997422;28;20030;-65
2021/08/03 10:18:55;;;;;;;1.58;1.48;;;22.00;69.10;;;;;;4985464;28;20042;-65
2021/08/03 10:21:51;;;;;;;1.92;1.45;;;22.10;69.10;;;;;;4987205;28;20034;-65
2021/08/03 10:24:28;;;;;;;2.55;1.40;;;22.10;67.80;;;;;;4988882;28;20039;-65
2021/08/03 10:27:06;;;;;;;2.10;1.38;;;22.20;68.40;;;;;;5000920;28;20096;-65
2021/08/03 10:29:33;;;;;;;1.40;1.30;;;22.20;68.50;;;;;;4987390;28;20042;-65
2021/08/03 10:31:59;;;;;;;1.40;1.30;;;22.30;68.30;;;;;;4977666;28;20034;-65
2021/08/03 10:34:43;;;;;;;1.40;1.30;;;22.40;67.90;;;;;;4987396;28;20413;-65
2021/08/03 10:37:12;;;;;;;1.27;1.17;;;22.50;66.50;;;;;;4988037;28;20026;-65
2021/08/03 10:39:52;;;;;;;1.40;1.00;;;22.50;66.30;;;;;;4985467;28;20440;-65
2021/08/03 10:42:18;;;;;;;1.42;1.10;;;22.60;64.80;;;;;;4979575;28;20142;-65
2021/08/03 10:44:47;;;;;;;1.33;1.10;;;22.60;66.50;;;;;;4980242;28;20042;-65
2021/08/03 10:47:34;;;;;;;1.38;1.20;;;22.60;66.10;;;;;;4983897;28;20394;-65
2021/08/03 10:50:28;;;;;;;1.23;0.93;;;22.70;65.00;;;;;;4973352;28;20527;-66
2021/08/03 10:52:55;;;;;;;1.30;1.13;;;22.70;65.50;;;;;;4984316;28;20042;-65
2021/08/03 10:55:43;;;;;;;1.65;1.55;;;22.70;65.50;;;;;;4982623;28;20132;-65
2021/08/03 10:58:08;;;;;;;2.25;1.50;;;22.70;65.80;;;;;;4979981;28;20045;-65
2021/08/03 11:00:48;;;;;;;1.50;1.27;;;22.70;64.00;;;;;;4996681;28;20096;-65
2021/08/03 11:03:32;;;;;;;2.53;1.40;;;22.60;63.60;;;;;;4977917;28;20064;-65
2021/08/03 11:06:04;;;;;;;3.80;1.60;;;22.60;63.40;;;;;;4983809;28;20174;-65
2021/08/03 11:08:31;;;;;;;1.75;1.60;;;22.50;63.90;;;;;;4984394;28;20449;-65
2021/08/03 11:11:05;;;;;;;2.05;1.50;;;22.60;64.60;;;;;;4980226;28;20035;-65
2021/08/03 11:13:41;;;;;;;2.20;1.23;;;22.60;64.80;;;;;;4975417;28;20254;-65
2021/08/03 11:16:33;;;;;;;2.67;1.23;;;22.60;65.10;;;;;;4986326;28;20066;-65
2021/08/03 11:19:00;;;;;;;1.50;1.40;;;22.70;64.10;;;;;;4982335;28;20040;-65
2021/08/03 11:21:28;;;;;;;2.28;1.40;;;22.70;65.30;;;;;;4987771;28;20036;-66
2021/08/03 11:24:17;;;;;;;1.85;1.20;;;22.70;65.10;;;;;;4980129;28;20328;-65
2021/08/03 11:26:56;;;;;;;1.38;1.17;;;22.80;62.70;;;;;;4999755;28;20049;-65
2021/08/03 11:29:26;;;;;;;1.92;1.60;;;22.80;63.00;;;;;;4983923;28;20034;-65
2021/08/03 11:31:58;;;;;;;1.58;1.48;;;22.90;63.10;;;;;;4985858;28;20378;-65
2021/08/03 11:34:36;;;;;;;1.75;1.65;;;22.80;63.00;;;;;;4978893;28;20030;-66
2021/08/03 11:37:05;;;;;;;2.88;1.17;;;22.90;62.70;;;;;;5000857;28;20053;-65
2021/08/03 11:39:44;;;;;;;4.32;1.55;;;22.90;61.80;;;;;;4987622;28;20074;-65
2021/08/03 11:42:11;;;;;;;0.90;0.70;;;22.90;60.50;;;;;;4982865;28;20071;-64
2021/08/03 11:44:38;;;;;;;0.80;0.70;;;23.00;60.40;;;;;;4981409;28;20042;-65
2021/08/03 11:47:07;;;;;;;0.52;0.52;;;22.90;59.80;;;;;;4984918;28;20108;-65
2021/08/03 11:49:37;;;;;;;0.80;0.80;;;22.80;58.90;;;;;;4978802;28;20041;-65
2021/08/03 11:52:17;;;;;;;0.63;0.50;;;22.70;57.70;;;;;;4982592;28;20059;-66
2021/08/03 11:54:45;;;;;;;0.70;0.52;;;22.50;58.10;;;;;;4985251;28;20045;-65
2021/08/03 11:57:32;;;;;;;1.10;0.70;;;22.40;58.20;;;;;;4984686;28;20249;-65
2021/08/03 11:59:58;;;;;;;1.48;0.60;;;22.20;58.70;;;;;;4985824;28;20066;-65
2021/08/03 12:02:24;;;;;;;1.42;0.70;;;22.20;59.00;;;;;;4969381;28;20518;-65
2021/08/03 12:05:09;;;;;;;0.60;0.52;;;22.10;59.40;;;;;;4973033;28;20045;-65
2021/08/03 12:07:37;;;;;;;0.77;0.73;;;22.00;59.00;;;;;;4971151;28;20038;-65
2021/08/03 12:10:04;;;;;;;0.60;0.60;;;22.00;59.50;;;;;;4985438;28;20061;-65
2021/08/03 12:12:29;;;;;;;0.70;0.70;;;21.90;59.30;;;;;;4980367;28;20061;-65
2021/08/03 12:15:06;;;;;;;0.60;0.60;;;21.90;60.20;;;;;;4985191;28;20531;-65
2021/08/03 12:17:32;;;;;;;0.60;0.60;;;21.80;59.30;;;;;;4998089;28;20045;-65
2021/08/03 12:20:03;;;;;;;0.98;0.60;;;21.80;59.70;;;;;;4981396;28;20039;-65
2021/08/03 12:22:31;;;;;;;0.70;0.70;;;21.90;60.10;;;;;;4986359;28;20038;-65
2021/08/03 12:25:02;;;;;;;0.90;0.60;;;21.80;60.60;;;;;;4983681;28;20062;-65
2021/08/03 12:27:38;;;;;;;0.90;0.68;;;21.80;59.20;;;;;;4986112;28;20047;-65
2021/08/03 12:30:05;;;;;;;0.85;0.77;;;21.80;58.80;;;;;;4985621;28;20037;-65
2021/08/03 12:32:38;;;;;;;2.50;0.65;;;21.80;58.60;;;;;;4981850;28;20035;-65
2021/08/03 12:35:12;;;;;;;0.70;0.70;;;21.80;57.90;;;;;;4984853;28;20037;-65
2021/08/03 12:37:38;;;;;;;0.60;0.60;;;21.80;58.50;;;;;;4980584;28;20038;-65
2021/08/03 12:40:25;;;;;;;0.68;0.60;;;21.80;59.40;;;;;;4982604;28;20456;-65
2021/08/03 12:42:53;;;;;;;1.73;0.95;;;21.80;58.90;;;;;;4980888;28;20034;-65
2021/08/03 12:45:20;;;;;;;0.98;0.73;;;21.80;59.00;;;;;;4973823;28;20047;-65
2021/08/03 12:47:58;;;;;;;1.30;0.90;;;21.70;59.50;;;;;;4976737;28;20046;-65
2021/08/03 12:50:25;;;;;;;2.78;0.80;;;21.60;59.40;;;;;;4958627;28;20054;-65
2021/08/03 12:52:57;;;;;;;1.00;0.80;;;21.60;60.00;;;;;;4968701;28;20058;-65
2021/08/03 12:55:26;;;;;;;2.38;0.73;;;21.40;60.50;;;;;;4969258;28;20043;-65